createdAt,value
2018-09-12T00:01:01.300Z,20.30
2018-09-12T00:03:30.662Z,20.20
2018-09-12T00:05:59.724Z,20.10
2018-09-12T00:08:28.960Z,20.00
2018-09-12T00:10:58.084Z,20.00
2018-09-12T00:13:27.305Z,19.90
2018-09-12T00:16:03.000Z,19.90
2018-09-12T00:18:32.268Z,19.80
2018-09-12T00:21:01.400Z,19.80
2018-09-12T00:23:30.672Z,19.80
2018-09-12T00:26:00.022Z,19.80
2018-09-12T00:28:29.373Z,19.80
2018-09-12T00:30:58.523Z,19.80
2018-09-12T00:33:27.857Z,19.80
2018-09-12T00:35:56.929Z,19.80
2018-09-12T00:38:26.077Z,19.80
2018-09-12T00:40:55.126Z,19.70
2018-09-12T00:43:24.248Z,19.70
2018-09-12T00:45:53.516Z,19.70
2018-09-12T00:48:22.646Z,19.70
2018-09-12T00:50:51.851Z,19.70
2018-09-12T00:53:21.068Z,19.70
2018-09-12T00:55:50.476Z,19.70
2018-09-12T00:58:19.694Z,19.60
2018-09-12T01:00:49.073Z,19.60
2018-09-12T01:03:18.256Z,19.60
2018-09-12T01:05:47.500Z,19.60
2018-09-12T01:08:16.704Z,19.60
2018-09-12T01:10:45.916Z,19.60
2018-09-12T01:13:16.374Z,19.60
2018-09-12T01:15:45.872Z,19.60
2018-09-12T01:18:20.712Z,19.60
2018-09-12T01:20:52.250Z,19.60
2018-09-12T01:23:21.874Z,19.60
2018-09-12T01:25:51.282Z,19.60
2018-09-12T01:28:20.414Z,19.50
2018-09-12T01:30:49.541Z,19.50
2018-09-12T01:33:18.625Z,19.50
2018-09-12T01:35:48.185Z,19.40
2018-09-12T01:38:17.342Z,19.50
2018-09-12T01:40:46.512Z,19.40
2018-09-12T01:43:15.599Z,19.40
2018-09-12T01:45:45.419Z,19.40
2018-09-12T01:48:15.485Z,19.30
2018-09-12T01:50:44.519Z,19.30
2018-09-12T01:53:13.617Z,19.30
2018-09-12T01:55:42.687Z,19.30
2018-09-12T01:58:11.766Z,19.30
2018-09-12T02:00:42.078Z,19.30
2018-09-12T02:03:11.642Z,19.30
2018-09-12T02:05:40.732Z,19.30
2018-09-12T02:08:09.948Z,19.30
2018-09-12T02:10:39.116Z,19.40
2018-09-12T02:13:08.287Z,19.30
2018-09-12T02:15:37.373Z,19.30
2018-09-12T02:18:06.589Z,19.30
2018-09-12T02:20:35.776Z,19.30
2018-09-12T02:23:04.858Z,19.30
2018-09-12T02:25:34.064Z,19.30
2018-09-12T02:28:03.198Z,19.30
2018-09-12T02:30:32.367Z,19.30
2018-09-12T02:33:01.498Z,19.30
2018-09-12T02:35:30.657Z,19.20
2018-09-12T02:37:59.842Z,19.10
2018-09-12T02:40:29.157Z,19.10
2018-09-12T02:42:58.489Z,19.10
2018-09-12T02:45:28.890Z,19.00
2018-09-12T02:47:58.071Z,19.00
2018-09-12T02:50:27.383Z,19.00
2018-09-12T02:52:56.579Z,19.00
2018-09-12T02:55:25.775Z,19.00
2018-09-12T02:57:54.926Z,19.00
2018-09-12T03:00:23.956Z,19.00
2018-09-12T03:02:53.058Z,19.10
2018-09-12T03:05:22.166Z,19.10
2018-09-12T03:07:51.301Z,19.10
2018-09-12T03:10:20.464Z,19.10
2018-09-12T03:12:49.747Z,19.10
2018-09-12T03:15:18.830Z,19.00
2018-09-12T03:17:48.004Z,19.00
2018-09-12T03:20:17.477Z,19.00
2018-09-12T03:22:46.699Z,19.00
2018-09-12T03:25:15.957Z,19.00
2018-09-12T03:27:45.173Z,19.00
2018-09-12T03:30:14.400Z,19.00
2018-09-12T03:32:43.553Z,18.90
2018-09-12T03:35:12.801Z,18.90
2018-09-12T03:37:42.019Z,19.00
2018-09-12T03:40:11.395Z,19.00
2018-09-12T03:42:40.466Z,19.00
2018-09-12T03:45:09.729Z,19.00
2018-09-12T03:47:38.997Z,18.90
2018-09-12T03:50:08.092Z,18.90
2018-09-12T03:52:37.208Z,18.90
2018-09-12T03:55:06.510Z,18.80
2018-09-12T03:57:35.520Z,18.80
2018-09-12T04:00:05.494Z,18.80
2018-09-12T04:02:34.981Z,18.70
2018-09-12T04:05:04.298Z,18.70
2018-09-12T04:07:33.540Z,18.60
2018-09-12T04:10:02.826Z,18.50
2018-09-12T04:12:31.890Z,18.50
2018-09-12T04:15:01.345Z,18.40
2018-09-12T04:17:34.559Z,18.30
2018-09-12T04:20:03.873Z,18.20
2018-09-12T04:22:33.490Z,18.20
2018-09-12T04:25:02.796Z,18.10
2018-09-12T04:27:31.917Z,18.00
2018-09-12T04:30:01.090Z,18.00
2018-09-12T04:32:30.619Z,18.00
2018-09-12T04:34:59.795Z,17.90
2018-09-12T04:37:28.929Z,17.90
2018-09-12T04:39:58.171Z,17.90
2018-09-12T04:42:27.243Z,18.00
2018-09-12T04:44:56.416Z,17.90
2018-09-12T04:47:25.520Z,17.90
2018-09-12T04:49:54.713Z,18.00
2018-09-12T04:52:23.885Z,18.00
2018-09-12T04:54:53.204Z,18.00
2018-09-12T04:57:22.498Z,18.00
2018-09-12T04:59:51.795Z,18.00
2018-09-12T05:02:21.089Z,18.10
2018-09-12T05:04:50.212Z,18.10
2018-09-12T05:07:19.213Z,18.10
2018-09-12T05:09:48.369Z,18.10
2018-09-12T05:12:17.508Z,18.20
2018-09-12T05:14:46.600Z,18.30
2018-09-12T05:17:15.742Z,18.30
2018-09-12T05:19:45.030Z,18.30
2018-09-12T05:22:14.565Z,18.30
2018-09-12T05:24:43.686Z,18.40
2018-09-12T05:27:12.990Z,18.50
2018-09-12T05:29:42.583Z,18.50
2018-09-12T05:59:14.851Z,18.70
2018-09-12T06:01:44.188Z,19.40
2018-09-12T06:04:13.507Z,19.40
2018-09-12T06:06:42.703Z,19.50
2018-09-12T06:09:12.058Z,19.50
2018-09-12T06:11:41.312Z,19.60
2018-09-12T06:14:10.696Z,19.60
2018-09-12T06:17:05.487Z,19.70
2018-09-12T06:19:34.675Z,19.80
2018-09-12T06:22:04.879Z,19.80
2018-09-12T06:24:34.272Z,19.90
2018-09-12T06:27:03.665Z,20.00
2018-09-12T06:29:32.741Z,20.00
2018-09-12T06:32:01.814Z,20.10
2018-09-12T06:34:42.270Z,20.20
2018-09-12T06:37:13.691Z,20.30
2018-09-12T06:39:45.919Z,20.40
2018-09-12T06:42:14.969Z,20.50
2018-09-12T06:44:44.217Z,20.50
2018-09-12T06:47:14.254Z,20.60
2018-09-12T06:49:47.110Z,20.80
2018-09-12T06:52:18.343Z,20.90
2018-09-12T06:54:47.683Z,21.10
2018-09-12T06:57:16.889Z,21.30
2018-09-12T06:59:46.139Z,21.70
2018-09-12T07:02:15.320Z,23.10
2018-09-12T07:04:45.095Z,24.60
2018-09-12T07:07:14.449Z,26.00
2018-09-12T07:09:43.558Z,25.80
2018-09-12T07:12:12.659Z,26.20
2018-09-12T07:14:41.815Z,26.40
2018-09-12T07:17:11.119Z,26.50
2018-09-12T07:19:40.419Z,26.80
2018-09-12T07:22:09.949Z,27.10
2018-09-12T07:24:39.096Z,26.90
2018-09-12T07:27:17.888Z,26.80
2018-09-12T07:29:48.207Z,27.20
2018-09-12T07:32:18.043Z,27.80
2018-09-12T07:34:47.193Z,27.70
2018-09-12T07:37:16.935Z,28.30
2018-09-12T07:39:47.167Z,28.50
2018-09-12T07:42:16.294Z,29.30
2018-09-12T07:44:45.328Z,28.80
2018-09-12T07:47:14.468Z,28.00
2018-09-12T07:49:43.702Z,27.60
2018-09-12T07:52:14.843Z,28.30
2018-09-12T07:54:43.943Z,28.70
2018-09-12T07:57:13.053Z,28.80
2018-09-12T07:59:42.137Z,29.00
2018-09-12T08:02:11.345Z,29.30
2018-09-12T08:04:41.452Z,29.90
2018-09-12T08:07:10.930Z,29.30
2018-09-12T08:09:41.388Z,29.00
2018-09-12T08:12:11.377Z,28.90
2018-09-12T08:14:40.723Z,27.70
2018-09-12T08:17:10.353Z,26.90
2018-09-12T08:19:40.992Z,26.50
2018-09-12T08:25:00.989Z,26.00
2018-09-12T08:27:32.311Z,25.80
2018-09-12T08:30:03.846Z,25.50
2018-09-12T08:32:37.455Z,25.60
2018-09-12T08:35:09.000Z,25.50
2018-09-12T08:37:40.159Z,25.90
2018-09-12T08:40:17.236Z,26.10
2018-09-12T08:42:47.634Z,26.00
2018-09-12T08:45:20.674Z,26.10
2018-09-12T08:47:51.097Z,26.10
2018-09-12T08:50:23.728Z,26.00
2018-09-12T08:52:55.350Z,25.80
2018-09-12T08:55:24.629Z,25.60
2018-09-12T08:57:54.373Z,25.60
2018-09-12T09:00:27.787Z,25.70
2018-09-12T09:02:56.732Z,26.00
2018-09-12T09:05:25.759Z,26.40
2018-09-12T09:07:54.729Z,26.80
2018-09-12T09:10:23.847Z,26.90
2018-09-12T09:12:53.293Z,26.80
2018-09-12T09:15:22.323Z,26.90
2018-09-12T09:17:51.437Z,27.30
2018-09-12T09:20:22.923Z,27.60
2018-09-12T09:22:52.111Z,27.40
2018-09-12T09:25:22.009Z,27.70
2018-09-12T09:27:51.159Z,27.70
2018-09-12T09:30:20.131Z,27.80
2018-09-12T09:32:49.368Z,27.30
2018-09-12T09:35:18.447Z,27.20
2018-09-12T09:37:47.384Z,27.30
2018-09-12T09:40:16.412Z,27.50
2018-09-12T09:42:45.467Z,27.30
2018-09-12T09:45:14.567Z,26.70
2018-09-12T09:47:43.912Z,26.50
2018-09-12T09:50:12.926Z,26.30
2018-09-12T09:52:42.014Z,26.20
2018-09-12T09:55:11.296Z,25.70
2018-09-12T09:57:40.348Z,25.60
2018-09-12T10:00:15.550Z,25.70
2018-09-12T10:02:50.141Z,25.70
2018-09-12T10:05:29.266Z,25.80
2018-09-12T10:08:35.240Z,26.20
2018-09-12T10:11:04.320Z,26.80
2018-09-12T10:13:33.368Z,27.20
2018-09-12T10:16:02.524Z,27.60
2018-09-12T10:18:31.578Z,27.90
2018-09-12T10:21:00.536Z,27.90
2018-09-12T10:23:29.538Z,28.50
2018-09-12T10:25:58.628Z,29.20
2018-09-12T10:28:27.714Z,29.00
2018-09-12T10:30:56.742Z,28.50
2018-09-12T10:33:26.037Z,29.90
2018-09-12T10:35:55.234Z,30.20
2018-09-12T10:38:24.244Z,30.10
2018-09-12T10:40:53.236Z,29.80
2018-09-12T10:43:22.295Z,29.30
2018-09-12T10:45:51.335Z,29.20
2018-09-12T10:48:20.435Z,29.50
2018-09-12T10:50:49.551Z,29.60
2018-09-12T10:53:18.713Z,29.00
2018-09-12T10:55:47.741Z,29.10
2018-09-12T10:58:16.827Z,29.60
2018-09-12T11:00:45.822Z,29.90
2018-09-12T11:03:14.955Z,30.00
2018-09-12T11:05:44.081Z,30.10
2018-09-12T11:08:13.080Z,29.90
2018-09-12T11:10:42.090Z,29.90
2018-09-12T11:13:11.060Z,29.90
2018-09-12T11:15:40.692Z,29.20
2018-09-12T11:18:09.658Z,28.50
2018-09-12T11:20:38.674Z,28.50
2018-09-12T11:23:07.837Z,28.40
2018-09-12T11:25:37.098Z,29.00
2018-09-12T11:28:06.116Z,29.70
2018-09-12T11:30:35.127Z,30.50
2018-09-12T11:33:04.160Z,30.90
2018-09-12T11:35:33.323Z,30.40
2018-09-12T11:38:02.605Z,29.10
2018-09-12T11:40:31.597Z,28.60
2018-09-12T11:43:00.758Z,28.70
2018-09-12T11:45:29.817Z,29.10
2018-09-12T11:47:58.890Z,29.60
2018-09-12T11:50:28.421Z,30.40
2018-09-12T11:52:57.369Z,31.00
2018-09-12T11:55:26.591Z,31.50
2018-09-12T11:57:55.701Z,31.20
2018-09-12T12:00:24.773Z,31.30
2018-09-12T12:03:00.497Z,31.70
2018-09-12T12:05:29.516Z,31.20
2018-09-12T12:07:58.515Z,30.90
2018-09-12T12:10:27.545Z,31.00
2018-09-12T12:12:56.656Z,30.50
2018-09-12T12:15:25.989Z,30.10
2018-09-12T12:17:55.584Z,30.70
2018-09-12T12:20:24.562Z,31.10
2018-09-12T12:22:53.660Z,31.10
2018-09-12T12:25:22.729Z,31.10
2018-09-12T12:27:51.730Z,31.40
2018-09-12T12:30:20.688Z,31.80
2018-09-12T12:32:50.032Z,31.50
2018-09-12T12:35:19.306Z,31.80
2018-09-12T12:37:48.281Z,31.40
2018-09-12T12:40:17.603Z,31.70
2018-09-12T12:42:46.749Z,31.10
2018-09-12T12:45:16.134Z,30.20
2018-09-12T12:47:45.206Z,29.50
2018-09-12T12:50:14.215Z,29.10
2018-09-12T12:52:43.241Z,29.00
2018-09-12T12:55:12.289Z,29.80
2018-09-12T12:57:41.253Z,30.50
2018-09-12T13:00:10.225Z,31.20
2018-09-12T13:02:39.291Z,31.00
2018-09-12T13:05:08.517Z,31.00
2018-09-12T13:07:37.506Z,31.30
2018-09-12T13:10:06.579Z,31.60
2018-09-12T13:12:35.700Z,31.10
2018-09-12T13:15:04.976Z,31.30
2018-09-12T13:17:34.094Z,31.90
2018-09-12T13:20:03.089Z,31.40
2018-09-12T13:22:32.076Z,31.00
2018-09-12T13:25:01.192Z,31.00
2018-09-12T13:27:36.590Z,31.20
2018-09-12T13:30:05.713Z,31.30
2018-09-12T13:32:34.887Z,30.70
2018-09-12T13:35:04.051Z,30.20
2018-09-12T13:37:33.070Z,29.70
2018-09-12T13:40:02.129Z,29.10
2018-09-12T13:42:32.040Z,28.70
2018-09-12T13:45:00.999Z,28.40
2018-09-12T13:47:30.036Z,28.50
2018-09-12T13:49:59.000Z,28.80
2018-09-12T13:52:27.960Z,28.90
2018-09-12T13:54:57.227Z,29.30
2018-09-12T13:57:26.325Z,29.30
2018-09-12T13:59:55.473Z,29.40
2018-09-12T14:02:24.602Z,29.80
2018-09-12T14:04:53.793Z,29.50
2018-09-12T14:07:23.233Z,29.50
2018-09-12T14:09:52.264Z,29.00
2018-09-12T14:12:21.263Z,28.80
2018-09-12T14:14:50.381Z,28.80
2018-09-12T14:17:19.791Z,28.60
2018-09-12T14:19:49.094Z,28.40
2018-09-12T14:22:18.130Z,28.60
2018-09-12T14:24:47.138Z,28.70
2018-09-12T14:27:16.540Z,28.80
2018-09-12T14:29:45.597Z,28.40
2018-09-12T14:32:14.693Z,28.20
2018-09-12T14:34:45.370Z,27.80
2018-09-12T14:37:14.422Z,27.80
2018-09-12T14:39:43.496Z,28.10
2018-09-12T14:42:12.586Z,28.40
2018-09-12T14:44:41.586Z,28.20
2018-09-12T14:47:11.627Z,27.80
2018-09-12T14:49:40.824Z,27.60
2018-09-12T14:52:09.952Z,27.30
2018-09-12T14:54:39.050Z,27.10
2018-09-12T14:57:08.105Z,26.80
2018-09-12T14:59:37.454Z,26.80
2018-09-12T15:02:06.621Z,26.80
2018-09-12T15:04:35.738Z,26.80
2018-09-12T15:07:04.892Z,26.60
2018-09-12T15:09:34.133Z,26.50
2018-09-12T15:12:03.215Z,26.40
2018-09-12T15:14:32.918Z,26.40
2018-09-12T15:17:02.083Z,26.50
2018-09-12T15:19:31.082Z,26.20
2018-09-12T15:22:01.414Z,26.20
2018-09-12T15:24:30.526Z,26.20
2018-09-12T15:27:01.105Z,26.00
2018-09-12T15:29:30.696Z,25.90
2018-09-12T15:32:00.924Z,25.70
2018-09-12T15:34:36.154Z,25.50
2018-09-12T15:37:05.612Z,25.30
2018-09-12T15:39:38.921Z,25.20
2018-09-12T15:42:08.851Z,25.10
2018-09-12T15:44:38.033Z,25.00
2018-09-12T15:47:10.812Z,25.00
2018-09-12T15:49:39.855Z,24.90
2018-09-12T15:52:11.057Z,24.90
2018-09-12T15:54:40.154Z,24.80
2018-09-12T15:57:10.043Z,24.60
2018-09-12T15:59:39.195Z,24.40
2018-09-12T16:02:08.343Z,24.20
2018-09-12T16:04:37.636Z,24.10
2018-09-12T16:07:06.854Z,24.10
2018-09-12T16:09:36.385Z,24.00
2018-09-12T16:12:05.525Z,23.90
2018-09-12T16:14:35.614Z,23.90
2018-09-12T16:17:04.659Z,23.90
2018-09-12T16:19:35.312Z,23.90
2018-09-12T16:22:04.784Z,23.70
2018-09-12T16:24:33.767Z,23.60
2018-09-12T16:27:02.803Z,23.50
2018-09-12T16:29:32.079Z,23.30
2018-09-12T16:32:01.200Z,23.10
2018-09-12T16:34:30.918Z,22.90
2018-09-12T16:37:01.924Z,22.70
2018-09-12T16:39:31.201Z,22.40
2018-09-12T16:42:01.056Z,22.40
2018-09-12T16:44:30.641Z,22.40
2018-09-12T16:46:59.796Z,22.30
2018-09-12T16:49:28.949Z,22.20
2018-09-12T16:51:57.946Z,22.00
2018-09-12T16:54:27.051Z,21.80
2018-09-12T16:56:56.216Z,21.70
2018-09-12T16:59:25.332Z,21.70
2018-09-12T17:01:54.782Z,21.70
2018-09-12T17:04:23.883Z,21.50
2018-09-12T17:06:53.196Z,21.40
2018-09-12T17:09:22.449Z,21.10
2018-09-12T17:11:51.501Z,21.00
2018-09-12T17:14:20.744Z,20.90
2018-09-12T17:16:49.938Z,20.70
2018-09-12T17:19:19.312Z,20.50
2018-09-12T17:21:51.886Z,20.50
2018-09-12T17:24:21.989Z,20.50
2018-09-12T17:26:54.177Z,20.50
2018-09-12T17:29:23.632Z,20.40
2018-09-12T17:31:57.081Z,20.40
2018-09-12T17:34:27.563Z,20.30
2018-09-12T17:36:57.521Z,20.30
2018-09-12T17:39:27.496Z,20.30
2018-09-12T17:41:56.680Z,20.30
2018-09-12T17:44:25.775Z,20.30
2018-09-12T17:46:55.028Z,20.30
2018-09-12T17:49:24.412Z,20.30
2018-09-12T17:51:54.406Z,20.30
2018-09-12T17:54:23.739Z,20.30
2018-09-12T17:56:52.842Z,20.30
2018-09-12T17:59:22.200Z,20.30
2018-09-12T18:01:52.290Z,20.30
2018-09-12T18:04:23.613Z,20.30
2018-09-12T18:06:53.691Z,20.20
2018-09-12T18:09:24.784Z,20.20
2018-09-12T18:11:54.511Z,20.00
2018-09-12T18:14:23.960Z,19.90
2018-09-12T18:16:53.644Z,19.80
2018-09-12T18:19:23.347Z,19.90
2018-09-12T18:21:52.927Z,19.80
2018-09-12T18:24:22.473Z,19.70
2018-09-12T18:26:52.644Z,19.50
2018-09-12T18:29:30.208Z,19.30
2018-09-12T18:32:00.045Z,19.40
2018-09-12T18:34:29.719Z,19.40
2018-09-12T18:37:01.827Z,19.40
2018-09-12T18:39:37.945Z,19.50
2018-09-12T18:42:10.479Z,19.30
2018-09-12T18:44:40.848Z,19.00
2018-09-12T18:47:11.042Z,18.90
2018-09-12T18:49:43.247Z,19.00
2018-09-12T18:52:14.993Z,19.00
2018-09-12T18:54:46.805Z,19.00
2018-09-12T19:00:05.152Z,18.70
2018-09-12T19:05:46.377Z,18.50
2018-09-12T19:08:36.008Z,18.50
2018-09-12T19:11:24.109Z,18.50
2018-09-12T19:14:15.286Z,18.40
2018-09-12T19:19:27.835Z,18.10
2018-09-12T19:25:46.549Z,17.90
2018-09-12T20:05:46.026Z,18.00
2018-09-12T20:08:17.901Z,17.90
2018-09-12T20:12:15.752Z,17.90
2018-09-12T20:15:35.508Z,17.80
2018-09-12T21:17:42.614Z,17.60
2018-09-12T21:20:14.743Z,17.20
2018-09-12T21:22:45.268Z,17.20
2018-09-12T21:25:18.324Z,17.20
2018-09-12T21:27:52.863Z,17.10
2018-09-12T21:30:25.348Z,17.00
2018-09-12T21:33:28.782Z,17.10
2018-09-12T21:38:23.919Z,17.20
2018-09-12T21:58:50.638Z,17.30
2018-09-12T22:01:56.897Z,17.30
2018-09-12T22:04:38.262Z,17.40
2018-09-12T22:07:34.213Z,17.40
2018-09-12T22:10:11.707Z,17.40
2018-09-12T22:15:44.803Z,17.30
2018-09-12T22:18:18.934Z,17.30
2018-09-12T22:23:25.231Z,17.20
2018-09-12T22:25:54.283Z,17.20
2018-09-12T22:28:24.163Z,17.20
2018-09-12T22:30:53.261Z,17.20
2018-09-12T22:33:23.445Z,17.20
2018-09-12T22:35:52.677Z,17.20
2018-09-12T22:38:22.058Z,17.20
2018-09-12T22:40:51.269Z,17.20
2018-09-12T22:43:22.577Z,17.10
2018-09-12T22:45:52.217Z,17.20
2018-09-12T22:48:21.615Z,17.20
2018-09-12T22:50:51.095Z,17.20
2018-09-12T22:53:20.158Z,17.30
2018-09-12T22:55:49.550Z,17.30
2018-09-12T22:58:18.870Z,17.30
2018-09-12T23:00:48.118Z,17.30
2018-09-12T23:03:17.343Z,17.30
2018-09-12T23:05:46.664Z,17.30
2018-09-12T23:08:15.913Z,17.30
2018-09-12T23:10:45.084Z,17.20
2018-09-12T23:13:14.352Z,17.20
2018-09-12T23:15:44.001Z,17.30
2018-09-12T23:18:13.471Z,17.30
2018-09-12T23:20:42.578Z,17.40
2018-09-12T23:23:11.728Z,17.40
2018-09-12T23:25:40.917Z,17.40
2018-09-12T23:28:10.137Z,17.40
2018-09-12T23:30:39.155Z,17.40
2018-09-12T23:33:08.453Z,17.40
2018-09-12T23:35:40.571Z,17.30
2018-09-12T23:38:09.735Z,17.30
2018-09-12T23:40:38.829Z,17.30
2018-09-12T23:43:08.215Z,17.30
2018-09-12T23:45:37.451Z,17.30
2018-09-12T23:48:06.529Z,17.40
2018-09-12T23:50:35.613Z,17.40
2018-09-12T23:53:05.918Z,17.30
2018-09-12T23:55:35.135Z,17.20
2018-09-12T23:58:04.153Z,17.20
